Terminal Aerodrome Forecast
Issued by NWS Charleston, WV

Current Version | Previous Version | Graphics & Text | Print | Product List | Glossary On
Versions: 1 2 3 4 5 6 7 8 9 10 11 12 13 14 15 16 17 18 19 20 21 22 23 24
000
FTUS41 KRLX 010100 AAA
TAFBKW
TAF AMD
KBKW 010156Z 0102/0124 23005KT P6SM SCT040 OVC060
     FM010300 27005KT P6SM SCT030 BKN040
      TEMPO 0103/0105 1SM SHRA BR BKN015
     FM010500 26004KT P6SM OVC045
     FM011700 26005KT P6SM SCT030
     FM012100 26006KT P6SM SCT035=

USA.gov is the U.S. government's official web portal to all federal, state and local government web resources and services.